createdAt,value
2023-12-29T00:01:57.741Z,67.18
2023-12-29T00:04:25.647Z,67.19
2023-12-29T00:06:59.853Z,66.86
2023-12-29T00:09:30.663Z,66.62
2023-12-29T00:11:58.462Z,66.95
2023-12-29T00:14:27.433Z,67.34
2023-12-29T00:16:58.393Z,66.63
2023-12-29T00:19:26.402Z,67.28
2023-12-29T00:21:54.523Z,66.90
2023-12-29T00:24:22.281Z,66.95
2023-12-29T00:26:50.030Z,66.86
2023-12-29T00:29:17.783Z,66.48
2023-12-29T00:31:45.591Z,66.99
2023-12-29T00:34:14.972Z,67.24
2023-12-29T00:36:42.876Z,66.58
2023-12-29T00:39:10.652Z,66.50
2023-12-29T00:41:38.395Z,66.94
2023-12-29T00:44:06.469Z,66.92
2023-12-29T00:46:34.314Z,66.87
2023-12-29T00:49:02.233Z,67.09
2023-12-29T00:51:31.449Z,67.00
2023-12-29T00:53:59.320Z,67.08
2023-12-29T00:56:27.078Z,67.30
2023-12-29T00:58:54.873Z,67.38
2023-12-29T01:01:22.802Z,67.68
2023-12-29T01:03:50.641Z,67.70
2023-12-29T01:06:18.428Z,67.66
2023-12-29T01:08:47.570Z,67.99
2023-12-29T01:11:15.365Z,68.04
2023-12-29T01:13:43.102Z,68.26
2023-12-29T01:16:11.199Z,68.39
2023-12-29T01:18:39.158Z,68.64
2023-12-29T01:21:07.091Z,68.94
2023-12-29T01:23:34.866Z,68.95
2023-12-29T01:26:04.085Z,69.11
2023-12-29T01:28:31.834Z,68.90
2023-12-29T01:30:59.751Z,69.24
2023-12-29T01:33:27.538Z,69.34
2023-12-29T01:35:55.276Z,69.43
2023-12-29T01:38:23.058Z,69.41
2023-12-29T01:40:50.820Z,69.59
2023-12-29T01:43:20.046Z,69.52
2023-12-29T01:45:55.479Z,69.53
2023-12-29T01:48:26.787Z,69.44
2023-12-29T01:50:56.494Z,69.63
2023-12-29T01:53:34.422Z,69.68
2023-12-29T01:56:09.019Z,69.59
2023-12-29T01:58:38.445Z,69.80
2023-12-29T02:01:09.081Z,70.12
2023-12-29T02:03:37.488Z,69.67
2023-12-29T02:06:06.858Z,69.73
2023-12-29T02:08:34.931Z,69.83
2023-12-29T02:11:02.904Z,69.57
2023-12-29T02:13:30.668Z,69.63
2023-12-29T02:16:06.347Z,69.57
2023-12-29T02:18:36.820Z,69.49
2023-12-29T02:21:04.885Z,69.49
2023-12-29T02:23:32.642Z,69.72
2023-12-29T02:26:09.669Z,69.63
2023-12-29T02:28:42.608Z,69.77
2023-12-29T02:31:18.753Z,69.35
2023-12-29T02:33:47.966Z,69.24
2023-12-29T02:36:18.424Z,69.21
2023-12-29T02:38:46.810Z,69.30
2023-12-29T02:41:16.219Z,69.16
2023-12-29T02:43:43.995Z,69.14
2023-12-29T02:46:11.942Z,69.16
2023-12-29T02:48:39.765Z,69.30
2023-12-29T02:51:09.504Z,69.01
2023-12-29T02:53:37.345Z,69.24
2023-12-29T02:56:05.614Z,68.90
2023-12-29T02:58:34.737Z,69.05
2023-12-29T03:01:02.613Z,69.17
2023-12-29T03:03:30.487Z,69.18
2023-12-29T03:05:58.312Z,68.70
2023-12-29T03:08:26.209Z,68.94
2023-12-29T03:10:53.967Z,68.92
2023-12-29T03:13:21.754Z,68.82
2023-12-29T03:15:50.909Z,69.06
2023-12-29T03:18:18.791Z,69.00
2023-12-29T03:20:46.649Z,68.91
2023-12-29T03:23:14.453Z,68.70
2023-12-29T03:25:42.279Z,68.70
2023-12-29T03:28:10.615Z,68.83
2023-12-29T03:30:38.529Z,68.59
2023-12-29T03:33:08.002Z,68.64
2023-12-29T03:35:35.832Z,68.44
2023-12-29T03:38:04.013Z,68.10
2023-12-29T03:40:31.941Z,68.67
2023-12-29T03:42:59.782Z,68.34
2023-12-29T03:45:27.585Z,68.23
2023-12-29T03:47:55.405Z,68.32
2023-12-29T03:50:24.676Z,68.67
2023-12-29T03:52:52.467Z,68.00
2023-12-29T03:55:20.250Z,68.27
2023-12-29T03:57:48.145Z,68.17
2023-12-29T04:00:16.901Z,68.22
2023-12-29T04:02:44.696Z,68.23
2023-12-29T04:05:12.652Z,68.13
2023-12-29T04:07:42.723Z,68.40
2023-12-29T04:10:11.766Z,68.37
2023-12-29T04:12:39.624Z,68.54
2023-12-29T04:15:08.444Z,68.52
2023-12-29T04:17:36.357Z,68.49
2023-12-29T04:20:04.547Z,68.38
2023-12-29T04:22:32.375Z,68.45
2023-12-29T04:25:01.651Z,68.42
2023-12-29T04:27:29.472Z,68.30
2023-12-29T04:29:57.214Z,68.35
2023-12-29T04:32:24.945Z,68.37
2023-12-29T04:34:52.701Z,67.90
2023-12-29T04:37:20.479Z,68.04
2023-12-29T04:39:48.260Z,68.07
2023-12-29T04:42:19.039Z,68.28
2023-12-29T04:44:46.821Z,68.13
2023-12-29T04:47:14.609Z,67.90
2023-12-29T04:49:42.557Z,67.74
2023-12-29T04:52:10.468Z,67.59
2023-12-29T04:54:38.319Z,67.90
2023-12-29T04:57:06.613Z,67.63
2023-12-29T04:59:35.856Z,67.70
2023-12-29T05:02:03.687Z,67.77
2023-12-29T05:04:31.534Z,67.81
2023-12-29T05:06:59.442Z,67.31
2023-12-29T05:09:27.258Z,67.49
2023-12-29T05:11:55.310Z,67.48
2023-12-29T05:14:23.048Z,67.89
2023-12-29T05:16:52.157Z,67.63
2023-12-29T05:19:20.018Z,67.74
2023-12-29T05:21:50.803Z,67.95
2023-12-29T05:24:18.557Z,67.89
2023-12-29T05:26:46.282Z,67.96
2023-12-29T05:29:14.052Z,67.51
2023-12-29T05:31:41.859Z,67.89
2023-12-29T05:34:11.127Z,67.92
2023-12-29T05:36:39.857Z,67.81
2023-12-29T05:39:08.535Z,67.99
2023-12-29T05:41:36.342Z,68.14
2023-12-29T05:44:04.470Z,68.14
2023-12-29T05:46:32.292Z,68.17
2023-12-29T05:49:00.253Z,68.39
2023-12-29T05:51:29.502Z,67.95
2023-12-29T05:53:57.310Z,68.07
2023-12-29T05:56:26.385Z,68.24
2023-12-29T05:58:54.443Z,68.57
2023-12-29T06:01:22.413Z,68.31
2023-12-29T06:03:50.361Z,68.49
2023-12-29T06:06:18.826Z,68.42
2023-12-29T06:08:47.991Z,68.52
2023-12-29T06:11:17.422Z,68.62
2023-12-29T06:13:45.245Z,68.68
2023-12-29T06:16:19.966Z,68.66
2023-12-29T06:18:48.103Z,68.70
2023-12-29T06:21:15.979Z,68.69
2023-12-29T06:23:43.796Z,68.63
2023-12-29T06:26:19.490Z,68.69
2023-12-29T06:28:47.580Z,68.97
2023-12-29T06:31:15.717Z,68.87
2023-12-29T06:33:43.139Z,68.89
2023-12-29T06:36:11.461Z,68.98
2023-12-29T06:38:39.290Z,68.86
2023-12-29T06:41:07.154Z,68.95
2023-12-29T06:43:36.363Z,68.76
2023-12-29T06:46:04.890Z,68.38
2023-12-29T06:48:32.937Z,67.66
2023-12-29T06:51:00.788Z,67.74
2023-12-29T06:53:28.613Z,66.55
2023-12-29T06:55:56.409Z,65.78
2023-12-29T06:58:24.240Z,65.60
2023-12-29T07:00:53.520Z,65.90
2023-12-29T07:03:21.471Z,66.45
2023-12-29T07:05:49.436Z,66.95
2023-12-29T07:08:17.444Z,66.81
2023-12-29T07:10:45.250Z,67.07
2023-12-29T07:13:13.098Z,67.29
2023-12-29T07:15:41.032Z,67.60
2023-12-29T07:18:10.341Z,68.20
2023-12-29T07:20:38.205Z,68.13
2023-12-29T07:23:06.385Z,68.58
2023-12-29T07:25:34.195Z,68.65
2023-12-29T07:28:02.367Z,68.74
2023-12-29T07:30:30.424Z,69.04
2023-12-29T07:32:58.230Z,69.05
2023-12-29T07:35:27.590Z,69.14
2023-12-29T07:37:55.480Z,68.81
2023-12-29T07:40:23.810Z,69.15
2023-12-29T07:42:52.099Z,69.23
2023-12-29T07:45:20.109Z,69.61
2023-12-29T07:47:48.015Z,69.49
2023-12-29T07:50:15.964Z,69.71
2023-12-29T07:52:46.643Z,69.45
2023-12-29T07:55:14.543Z,69.76
2023-12-29T07:57:42.355Z,70.09
2023-12-29T08:00:11.443Z,70.08
2023-12-29T08:02:39.191Z,70.05
2023-12-29T08:05:09.388Z,70.23
2023-12-29T08:07:37.583Z,70.10
2023-12-29T08:10:08.375Z,70.27
2023-12-29T08:12:37.063Z,70.20
2023-12-29T08:15:06.743Z,70.31
2023-12-29T08:17:34.503Z,70.24
2023-12-29T08:20:02.377Z,70.49
2023-12-29T08:22:33.401Z,70.40
2023-12-29T08:25:01.227Z,70.11
2023-12-29T08:27:30.314Z,70.25
2023-12-29T08:29:58.369Z,70.35
2023-12-29T08:32:26.136Z,70.41
2023-12-29T08:34:54.103Z,70.54
2023-12-29T08:37:22.075Z,70.39
2023-12-29T08:39:50.121Z,70.46
2023-12-29T08:42:18.264Z,70.64
2023-12-29T08:44:47.373Z,70.37
2023-12-29T08:47:15.233Z,70.79
2023-12-29T08:49:43.139Z,70.47
2023-12-29T08:52:11.065Z,70.59
2023-12-29T08:54:38.891Z,70.75
2023-12-29T08:57:07.888Z,70.62
2023-12-29T08:59:35.791Z,70.75
2023-12-29T09:02:05.352Z,70.76
2023-12-29T09:04:33.201Z,70.89
2023-12-29T09:07:01.059Z,70.92
2023-12-29T09:09:28.860Z,70.90
2023-12-29T09:11:56.607Z,70.97
2023-12-29T09:14:24.354Z,71.10
2023-12-29T09:16:52.138Z,70.99
2023-12-29T09:19:27.594Z,71.11
2023-12-29T09:22:04.523Z,71.06
2023-12-29T09:24:32.382Z,71.24
2023-12-29T09:27:00.124Z,71.02
2023-12-29T09:29:27.918Z,71.26
2023-12-29T09:31:55.725Z,71.42
2023-12-29T09:34:24.871Z,71.31
2023-12-29T09:36:52.843Z,71.66
2023-12-29T09:39:20.602Z,71.69
2023-12-29T09:41:49.341Z,71.77
2023-12-29T09:44:17.589Z,71.64
2023-12-29T09:46:47.013Z,71.96
2023-12-29T09:49:16.201Z,71.55
2023-12-29T09:51:45.932Z,71.92
2023-12-29T09:54:14.858Z,71.73
2023-12-29T09:56:43.226Z,71.76
2023-12-29T09:59:12.172Z,71.70
2023-12-29T10:01:41.362Z,71.70
2023-12-29T10:04:09.806Z,71.54
2023-12-29T10:06:40.854Z,71.42
2023-12-29T10:09:14.774Z,71.46
2023-12-29T10:11:44.344Z,71.47
2023-12-29T10:14:23.494Z,71.46
2023-12-29T10:16:57.046Z,71.15
2023-12-29T10:19:32.844Z,71.37
2023-12-29T10:22:08.147Z,71.21
2023-12-29T10:24:38.789Z,71.28
2023-12-29T10:27:07.233Z,71.15
2023-12-29T10:29:36.034Z,71.18
2023-12-29T10:32:04.027Z,71.07
2023-12-29T10:34:33.010Z,71.42
2023-12-29T10:37:02.431Z,70.95
2023-12-29T10:39:30.260Z,71.19
2023-12-29T10:42:10.410Z,71.34
2023-12-29T10:44:39.483Z,71.12
2023-12-29T10:47:11.543Z,71.40
2023-12-29T10:49:40.129Z,71.14
2023-12-29T10:52:15.286Z,71.30
2023-12-29T10:54:43.598Z,71.31
2023-12-29T10:57:14.464Z,71.35
2023-12-29T10:59:42.397Z,71.37
2023-12-29T11:02:16.167Z,71.31
2023-12-29T11:04:44.140Z,71.39
2023-12-29T11:07:14.473Z,71.27
2023-12-29T11:09:43.433Z,71.39
2023-12-29T11:12:15.165Z,71.32
2023-12-29T11:14:47.172Z,71.36
2023-12-29T11:17:16.720Z,70.98
2023-12-29T11:19:48.062Z,71.31
2023-12-29T11:22:18.827Z,71.63
2023-12-29T11:24:48.621Z,71.84
2023-12-29T11:27:18.547Z,71.92
2023-12-29T11:29:47.940Z,71.81
2023-12-29T11:32:22.705Z,71.82
2023-12-29T11:34:55.804Z,71.70
2023-12-29T11:37:31.609Z,72.10
2023-12-29T11:40:13.463Z,71.82
2023-12-29T11:42:44.064Z,71.76
2023-12-29T11:45:30.328Z,72.07
2023-12-29T11:47:58.531Z,72.27
2023-12-29T11:50:31.688Z,72.18
2023-12-29T11:53:00.712Z,71.96
2023-12-29T11:55:32.880Z,72.00
2023-12-29T11:58:02.348Z,72.09
2023-12-29T12:00:47.717Z,72.30
2023-12-29T12:03:17.853Z,72.22
2023-12-29T12:05:49.808Z,71.69
2023-12-29T12:08:32.161Z,72.29
2023-12-29T12:11:38.300Z,72.21
2023-12-29T12:14:07.434Z,72.69
2023-12-29T12:16:54.390Z,72.26
2023-12-29T12:19:25.461Z,72.43
2023-12-29T12:21:56.214Z,73.23
2023-12-29T12:24:24.136Z,73.19
2023-12-29T12:26:51.931Z,73.18
2023-12-29T12:29:21.495Z,73.47
2023-12-29T12:31:56.771Z,73.32
2023-12-29T12:34:25.411Z,73.53
2023-12-29T12:36:57.619Z,73.66
2023-12-29T12:39:25.790Z,73.58
2023-12-29T12:41:53.674Z,72.96
2023-12-29T12:44:28.578Z,73.03
2023-12-29T12:47:00.457Z,73.60
2023-12-29T12:49:28.319Z,73.65
2023-12-29T12:51:56.586Z,73.67
2023-12-29T12:54:24.627Z,73.88
2023-12-29T12:56:52.784Z,73.87
2023-12-29T12:59:22.526Z,73.77
2023-12-29T13:01:50.577Z,73.61
2023-12-29T13:04:19.202Z,73.50
2023-12-29T13:06:49.341Z,73.36
2023-12-29T13:09:20.789Z,73.42
2023-12-29T13:11:48.803Z,73.49
2023-12-29T13:14:24.705Z,73.43
2023-12-29T13:16:52.528Z,73.47
2023-12-29T13:19:21.621Z,73.49
2023-12-29T13:21:50.160Z,73.58
2023-12-29T13:24:18.876Z,73.32
2023-12-29T13:26:48.974Z,73.28
2023-12-29T13:29:17.065Z,73.32
2023-12-29T13:31:47.409Z,72.98
2023-12-29T13:34:19.231Z,72.99
2023-12-29T13:36:53.279Z,73.22
2023-12-29T13:39:32.089Z,73.20
2023-12-29T13:42:03.046Z,73.22
2023-12-29T13:44:31.717Z,72.79
2023-12-29T13:47:01.442Z,72.97
2023-12-29T13:49:29.546Z,73.07
2023-12-29T13:52:02.357Z,73.03
2023-12-29T13:54:30.107Z,73.12
2023-12-29T13:56:58.086Z,72.79
2023-12-29T13:59:33.113Z,72.88
2023-12-29T14:02:21.062Z,72.92
2023-12-29T14:04:48.975Z,72.72
2023-12-29T14:07:17.294Z,72.87
2023-12-29T14:09:45.131Z,72.87
2023-12-29T14:12:12.979Z,72.81
2023-12-29T14:14:40.900Z,72.70
2023-12-29T14:17:11.832Z,72.77
2023-12-29T14:19:40.194Z,72.70
2023-12-29T14:22:07.978Z,72.63
2023-12-29T14:24:35.748Z,72.72
2023-12-29T14:27:04.052Z,72.79
2023-12-29T14:29:42.669Z,72.57
2023-12-29T14:32:12.158Z,72.71
2023-12-29T14:34:39.984Z,72.73
2023-12-29T14:37:07.763Z,72.82
2023-12-29T14:39:35.529Z,72.59
2023-12-29T14:42:03.385Z,72.66
2023-12-29T14:44:31.130Z,72.92
2023-12-29T14:46:58.874Z,72.93
2023-12-29T14:49:27.991Z,72.73
2023-12-29T14:51:57.989Z,72.71
2023-12-29T14:54:25.775Z,72.92
2023-12-29T14:56:58.007Z,72.90
2023-12-29T14:59:31.329Z,72.85
2023-12-29T15:01:59.161Z,72.89
2023-12-29T15:04:32.772Z,72.96
2023-12-29T15:07:00.603Z,73.05
2023-12-29T15:09:28.633Z,73.23
2023-12-29T15:11:56.398Z,72.30
2023-12-29T15:14:24.196Z,71.97
2023-12-29T15:16:51.979Z,71.10
2023-12-29T15:19:19.869Z,70.85
2023-12-29T15:21:49.096Z,69.78
2023-12-29T15:24:16.869Z,69.47
2023-12-29T15:26:44.626Z,68.64
2023-12-29T15:29:12.404Z,68.19
2023-12-29T15:31:40.162Z,67.30
2023-12-29T15:34:07.998Z,66.92
2023-12-29T15:36:36.574Z,66.11
2023-12-29T15:39:06.348Z,66.20
2023-12-29T15:41:34.273Z,65.58
2023-12-29T15:44:04.655Z,65.91
2023-12-29T15:46:32.615Z,65.87
2023-12-29T15:49:02.512Z,65.73
2023-12-29T15:51:31.412Z,65.47
2023-12-29T15:53:59.238Z,65.89
2023-12-29T15:56:28.375Z,65.92
2023-12-29T15:58:56.113Z,65.54
2023-12-29T16:01:26.316Z,65.24
2023-12-29T16:03:54.284Z,65.59
2023-12-29T16:06:23.198Z,66.03
2023-12-29T16:08:53.184Z,66.52
2023-12-29T16:11:21.880Z,67.18
2023-12-29T16:13:51.433Z,68.06
2023-12-29T16:16:20.171Z,68.29
2023-12-29T16:18:48.299Z,68.97
2023-12-29T16:21:16.164Z,69.12
2023-12-29T16:23:44.772Z,69.31
2023-12-29T16:26:12.786Z,69.64
2023-12-29T16:28:41.733Z,69.76
2023-12-29T16:31:11.718Z,70.23
2023-12-29T16:33:40.070Z,70.17
2023-12-29T16:36:11.813Z,70.20
2023-12-29T16:38:40.286Z,70.48
2023-12-29T16:41:08.034Z,71.16
2023-12-29T16:43:35.780Z,70.91
2023-12-29T16:46:03.532Z,71.12
2023-12-29T16:48:32.865Z,71.00
2023-12-29T16:51:00.618Z,71.06
2023-12-29T16:53:28.384Z,70.78
2023-12-29T16:55:56.827Z,71.15
2023-12-29T16:58:24.646Z,71.41
2023-12-29T17:00:53.997Z,71.39
2023-12-29T17:03:22.167Z,71.08
2023-12-29T17:05:51.809Z,70.38
2023-12-29T17:08:19.541Z,69.88
2023-12-29T17:10:47.310Z,69.82
2023-12-29T17:13:15.124Z,68.88
2023-12-29T17:15:43.075Z,68.52
2023-12-29T17:18:10.938Z,68.20
2023-12-29T17:20:39.249Z,67.59
2023-12-29T17:23:09.516Z,66.75
2023-12-29T17:25:46.271Z,66.32
2023-12-29T17:28:18.696Z,65.95
2023-12-29T17:30:46.573Z,65.19
2023-12-29T17:33:14.849Z,65.35
2023-12-29T17:35:42.984Z,65.23
2023-12-29T17:38:12.118Z,66.45
2023-12-29T17:40:39.917Z,66.88
2023-12-29T18:28:50.464Z,66.33
2023-12-29T18:31:20.488Z,66.51
2023-12-29T18:33:48.618Z,65.36
2023-12-29T18:36:17.055Z,63.87
2023-12-29T18:38:44.895Z,63.98
2023-12-29T18:41:13.205Z,64.29
2023-12-29T18:43:41.091Z,65.05
2023-12-29T18:46:11.125Z,65.68
2023-12-29T18:48:40.332Z,66.34
2023-12-29T18:51:08.187Z,66.78
2023-12-29T18:53:36.231Z,66.72
2023-12-29T18:56:07.002Z,67.05
2023-12-29T18:58:35.327Z,67.98
2023-12-29T19:01:04.359Z,68.33
2023-12-29T19:03:35.575Z,68.15
2023-12-29T19:06:03.703Z,68.52
2023-12-29T19:08:31.498Z,68.81
2023-12-29T19:10:59.368Z,69.04
2023-12-29T19:13:27.329Z,69.39
2023-12-29T19:15:55.294Z,69.68
2023-12-29T19:18:23.187Z,69.96
2023-12-29T19:20:52.573Z,70.24
2023-12-29T19:23:20.421Z,70.24
2023-12-29T19:25:48.214Z,70.34
2023-12-29T19:28:16.162Z,70.40
2023-12-29T19:30:44.080Z,70.14
2023-12-29T19:33:12.057Z,70.14
2023-12-29T19:35:39.912Z,70.25
2023-12-29T19:38:09.116Z,70.22
2023-12-29T19:40:36.913Z,69.90
2023-12-29T19:43:05.540Z,69.95
2023-12-29T19:45:33.667Z,69.74
2023-12-29T19:48:03.619Z,69.78
2023-12-29T19:50:32.099Z,69.54
2023-12-29T19:53:01.325Z,69.77
2023-12-29T19:55:30.679Z,69.48
2023-12-29T19:57:58.552Z,69.80
2023-12-29T20:00:26.477Z,69.48
2023-12-29T20:02:54.301Z,69.26
2023-12-29T20:05:22.581Z,69.56
2023-12-29T20:07:52.042Z,69.16
2023-12-29T20:10:20.208Z,69.36
2023-12-29T20:12:49.443Z,69.11
2023-12-29T20:15:18.408Z,69.17
2023-12-29T20:17:46.423Z,69.20
2023-12-29T20:20:14.803Z,69.05
2023-12-29T20:22:42.606Z,69.44
2023-12-29T20:25:11.079Z,69.20
2023-12-29T20:27:38.906Z,69.41
2023-12-29T20:30:09.550Z,69.27
2023-12-29T20:32:37.405Z,69.19
2023-12-29T20:35:05.866Z,69.23
2023-12-29T20:37:33.667Z,69.50
2023-12-29T20:40:02.067Z,69.54
2023-12-29T20:42:29.937Z,69.43
2023-12-29T20:44:58.142Z,69.12
2023-12-29T20:47:27.411Z,69.46
2023-12-29T20:49:55.337Z,69.04
2023-12-29T20:52:23.321Z,69.13
2023-12-29T20:54:51.201Z,69.06
2023-12-29T20:57:20.173Z,69.02
2023-12-29T20:59:48.064Z,69.10
2023-12-29T21:02:15.806Z,69.22
2023-12-29T21:04:45.159Z,69.12
2023-12-29T21:07:13.229Z,68.99
2023-12-29T21:09:41.133Z,69.31
2023-12-29T21:12:11.450Z,69.18
2023-12-29T21:14:39.479Z,69.11
2023-12-29T21:17:07.841Z,68.50
2023-12-29T21:19:36.115Z,68.78
2023-12-29T21:22:05.349Z,68.43
2023-12-29T21:24:33.170Z,68.83
2023-12-29T21:27:00.942Z,68.50
2023-12-29T21:29:29.032Z,68.79
2023-12-29T21:31:56.881Z,68.70
2023-12-29T21:34:24.986Z,68.80
2023-12-29T21:36:52.941Z,68.77
2023-12-29T21:39:22.116Z,68.71
2023-12-29T21:41:49.875Z,68.60
2023-12-29T21:44:17.837Z,68.62
2023-12-29T21:46:45.611Z,68.69
2023-12-29T21:49:13.473Z,68.56
2023-12-29T21:51:41.280Z,68.71
2023-12-29T21:54:09.153Z,68.84
2023-12-29T21:56:38.268Z,68.68
2023-12-29T21:59:06.035Z,68.60
2023-12-29T22:01:39.205Z,68.60
2023-12-29T22:04:10.156Z,68.59
2023-12-29T22:06:40.767Z,68.69
2023-12-29T22:09:08.804Z,68.56
2023-12-29T22:11:38.099Z,68.82
2023-12-29T22:14:06.549Z,69.06
2023-12-29T22:16:34.390Z,68.78
2023-12-29T22:19:02.340Z,68.78
2023-12-29T22:21:30.302Z,68.75
2023-12-29T22:23:58.090Z,69.04
2023-12-29T22:26:25.913Z,69.14
2023-12-29T22:28:55.018Z,69.01
2023-12-29T22:31:22.898Z,69.24
2023-12-29T22:33:51.061Z,69.33
2023-12-29T22:36:20.455Z,69.04
2023-12-29T22:38:49.732Z,69.09
2023-12-29T22:41:18.958Z,68.82
2023-12-29T22:43:47.809Z,69.02
2023-12-29T22:46:22.193Z,69.14
2023-12-29T22:48:51.920Z,68.83
2023-12-29T22:51:19.883Z,68.51
2023-12-29T22:53:47.676Z,68.31
2023-12-29T22:56:15.434Z,68.64
2023-12-29T22:58:43.174Z,68.34
2023-12-29T23:01:11.068Z,68.48
2023-12-29T23:03:40.289Z,68.29
2023-12-29T23:06:08.534Z,67.92
2023-12-29T23:08:36.437Z,68.16
2023-12-29T23:11:04.461Z,68.13
2023-12-29T23:13:32.388Z,67.93
2023-12-29T23:16:00.294Z,68.26
2023-12-29T23:18:28.226Z,68.13
2023-12-29T23:20:57.356Z,68.34
2023-12-29T23:23:25.112Z,68.38
2023-12-29T23:25:54.210Z,68.24
2023-12-29T23:28:22.100Z,68.19
2023-12-29T23:30:50.172Z,67.59
2023-12-29T23:33:18.114Z,67.27
2023-12-29T23:35:46.098Z,67.46
2023-12-29T23:38:17.575Z,67.64
2023-12-29T23:40:44.453Z,67.53
2023-12-29T23:43:12.192Z,68.10
2023-12-29T23:45:39.978Z,68.08
2023-12-29T23:48:08.512Z,67.96
2023-12-29T23:50:36.743Z,67.85
2023-12-29T23:53:05.200Z,67.81
2023-12-29T23:55:34.834Z,67.63
2023-12-29T23:58:02.679Z,67.18
